createdAt,value
2022-11-09T00:00:09.969Z,7.50
2022-11-09T00:02:41.525Z,7.50
2022-11-09T00:05:10.916Z,7.50
2022-11-09T00:07:38.157Z,7.50
2022-11-09T00:10:05.842Z,7.50
2022-11-09T00:12:33.017Z,7.50
2022-11-09T00:15:00.161Z,7.50
2022-11-09T00:17:27.778Z,7.50
2022-11-09T00:19:54.907Z,7.40
2022-11-09T00:22:22.263Z,7.40
2022-11-09T00:24:49.439Z,7.40
2022-11-09T00:27:17.808Z,7.40
2022-11-09T00:29:45.100Z,7.40
2022-11-09T00:32:12.243Z,7.40
2022-11-09T00:34:39.369Z,7.30
2022-11-09T00:37:06.510Z,7.30
2022-11-09T00:39:33.681Z,7.30
2022-11-09T00:42:00.912Z,7.20
2022-11-09T00:44:30.277Z,7.20
2022-11-09T00:46:57.464Z,7.20
2022-11-09T00:49:24.600Z,7.20
2022-11-09T00:51:52.365Z,7.10
2022-11-09T00:54:19.758Z,7.20
2022-11-09T00:56:46.897Z,7.10
2022-11-09T00:59:14.459Z,7.10
2022-11-09T01:01:41.734Z,7.10
2022-11-09T01:04:08.947Z,7.00
2022-11-09T01:06:36.175Z,7.00
2022-11-09T01:09:03.481Z,7.00
2022-11-09T01:11:30.652Z,7.00
2022-11-09T01:13:59.993Z,7.00
2022-11-09T01:16:27.339Z,7.00
2022-11-09T01:18:55.327Z,7.00
2022-11-09T01:21:25.061Z,6.90
2022-11-09T01:23:52.260Z,6.90
2022-11-09T01:26:19.385Z,6.90
2022-11-09T01:28:46.790Z,6.90
2022-11-09T01:31:15.689Z,6.90
2022-11-09T01:33:42.861Z,6.80
2022-11-09T01:36:30.378Z,6.80
2022-11-09T01:39:00.767Z,6.80
2022-11-09T01:41:28.459Z,6.80
2022-11-09T01:44:21.996Z,6.80
2022-11-09T01:46:53.470Z,6.70
2022-11-09T01:49:42.235Z,6.70
2022-11-09T01:52:28.127Z,6.70
2022-11-09T01:55:07.558Z,6.70
2022-11-09T01:57:36.860Z,6.70
2022-11-09T02:00:23.202Z,6.60
2022-11-09T02:02:53.303Z,6.60
2022-11-09T02:05:23.887Z,6.60
2022-11-09T02:07:53.119Z,6.60
2022-11-09T02:10:37.928Z,6.50
2022-11-09T02:13:05.293Z,6.50
2022-11-09T02:15:41.401Z,6.50
2022-11-09T02:18:13.198Z,6.50
2022-11-09T02:20:53.534Z,6.50
2022-11-09T02:23:23.283Z,6.40
2022-11-09T02:26:06.317Z,6.40
2022-11-09T02:28:33.594Z,6.40
2022-11-09T02:31:01.403Z,6.40
2022-11-09T02:33:28.616Z,6.40
2022-11-09T02:35:55.908Z,6.30
2022-11-09T02:38:23.140Z,6.30
2022-11-09T02:40:50.456Z,6.30
2022-11-09T02:43:18.008Z,6.20
2022-11-09T02:45:45.897Z,6.20
2022-11-09T02:48:13.063Z,6.20
2022-11-09T02:50:40.229Z,6.20
2022-11-09T02:53:07.397Z,6.20
2022-11-09T02:55:37.841Z,6.20
2022-11-09T02:58:06.780Z,6.10
2022-11-09T03:00:35.211Z,6.10
2022-11-09T03:03:03.233Z,6.10
2022-11-09T03:05:30.447Z,6.10
2022-11-09T03:08:02.167Z,6.10
2022-11-09T03:10:31.363Z,6.00
2022-11-09T03:12:58.562Z,6.00
2022-11-09T03:15:25.770Z,6.00
2022-11-09T03:17:52.970Z,6.00
2022-11-09T03:20:21.394Z,6.00
2022-11-09T03:22:48.914Z,5.90
2022-11-09T03:25:16.465Z,5.90
2022-11-09T03:27:43.617Z,5.90
2022-11-09T03:30:12.933Z,5.90
2022-11-09T03:32:40.585Z,5.80
2022-11-09T03:35:08.854Z,5.80
2022-11-09T03:37:36.331Z,5.80
2022-11-09T03:40:04.369Z,5.80
2022-11-09T03:42:31.556Z,5.80
2022-11-09T03:44:58.706Z,5.80
2022-11-09T03:47:25.853Z,5.80
2022-11-09T03:49:52.966Z,5.80
2022-11-09T03:52:20.218Z,5.80
2022-11-09T03:54:47.339Z,5.80
2022-11-09T03:57:14.477Z,5.80
2022-11-09T03:59:41.640Z,5.90
2022-11-09T04:02:08.840Z,5.90
2022-11-09T04:04:36.042Z,6.00
2022-11-09T04:07:03.281Z,6.00
2022-11-09T04:09:30.455Z,6.10
2022-11-09T04:11:57.593Z,6.10
2022-11-09T04:14:24.734Z,6.10
2022-11-09T04:16:51.857Z,6.20
2022-11-09T04:19:18.990Z,6.30
2022-11-09T04:21:46.111Z,6.40
2022-11-09T04:24:13.260Z,6.40
2022-11-09T04:26:40.426Z,6.40
2022-11-09T04:29:07.608Z,6.50
2022-11-09T04:31:34.786Z,6.50
2022-11-09T04:34:01.905Z,6.60
2022-11-09T04:36:29.021Z,6.70
2022-11-09T04:38:56.228Z,6.80
2022-11-09T04:41:23.364Z,6.80
2022-11-09T04:43:50.504Z,6.90
2022-11-09T04:46:17.652Z,7.00
2022-11-09T04:48:44.814Z,7.00
2022-11-09T04:51:11.956Z,7.00
2022-11-09T04:53:39.169Z,7.10
2022-11-09T04:56:06.691Z,7.10
2022-11-09T04:58:34.001Z,7.10
2022-11-09T05:01:05.424Z,7.20
2022-11-09T05:03:32.628Z,7.20
2022-11-09T05:05:59.839Z,7.20
2022-11-09T05:08:26.991Z,7.30
2022-11-09T05:10:59.962Z,7.30
2022-11-09T05:13:27.155Z,7.20
2022-11-09T05:15:54.321Z,7.20
2022-11-09T05:18:21.581Z,7.20
2022-11-09T05:20:48.710Z,7.10
2022-11-09T05:23:34.239Z,7.10
2022-11-09T05:26:01.538Z,7.10
2022-11-09T05:28:28.667Z,7.10
2022-11-09T05:30:55.790Z,7.00
2022-11-09T05:33:23.369Z,7.00
2022-11-09T05:35:50.599Z,7.00
2022-11-09T05:38:17.750Z,7.00
2022-11-09T05:40:44.885Z,6.90
2022-11-09T05:43:12.011Z,6.90
2022-11-09T05:45:43.737Z,6.90
2022-11-09T05:48:12.555Z,6.90
2022-11-09T05:50:41.090Z,6.90
2022-11-09T05:53:34.689Z,6.90
2022-11-09T05:56:03.654Z,6.90
2022-11-09T05:58:31.004Z,6.90
2022-11-09T06:00:59.732Z,6.90
2022-11-09T06:03:26.924Z,6.90
2022-11-09T06:05:54.071Z,6.90
2022-11-09T06:08:21.225Z,6.90
2022-11-09T06:10:48.399Z,6.80
2022-11-09T06:13:15.653Z,6.80
2022-11-09T06:15:42.807Z,6.80
2022-11-09T06:18:09.970Z,6.80
2022-11-09T06:20:37.131Z,6.80
2022-11-09T06:23:04.620Z,6.80
2022-11-09T06:25:32.535Z,6.70
2022-11-09T06:27:59.736Z,6.70
2022-11-09T06:30:26.955Z,6.70
2022-11-09T06:33:01.094Z,6.60
2022-11-09T06:35:28.300Z,6.70
2022-11-09T06:37:59.277Z,6.60
2022-11-09T06:40:26.685Z,6.70
2022-11-09T06:42:57.310Z,6.60
2022-11-09T06:45:24.592Z,6.70
2022-11-09T06:47:54.614Z,6.70
2022-11-09T06:50:21.863Z,6.70
2022-11-09T06:52:48.994Z,6.80
2022-11-09T06:55:16.221Z,6.90
2022-11-09T06:57:43.398Z,7.00
2022-11-09T07:00:11.349Z,7.00
2022-11-09T07:02:38.550Z,7.00
2022-11-09T07:05:06.057Z,7.00
2022-11-09T07:07:33.218Z,7.10
2022-11-09T07:10:00.451Z,7.10
2022-11-09T07:12:28.701Z,7.10
2022-11-09T07:14:56.029Z,7.10
2022-11-09T07:17:23.180Z,7.10
2022-11-09T07:19:50.311Z,7.10
2022-11-09T07:22:17.568Z,7.10
2022-11-09T07:24:44.683Z,7.20
2022-11-09T07:27:11.864Z,7.20
2022-11-09T07:29:39.104Z,7.20
2022-11-09T07:32:06.915Z,7.30
2022-11-09T07:34:34.047Z,7.30
2022-11-09T07:37:01.153Z,7.40
2022-11-09T07:39:28.452Z,7.50
2022-11-09T07:41:55.983Z,7.50
2022-11-09T07:44:26.110Z,7.50
2022-11-09T07:46:53.290Z,7.50
2022-11-09T07:49:20.542Z,7.60
2022-11-09T07:51:47.687Z,7.60
2022-11-09T07:54:14.835Z,7.60
2022-11-09T07:56:42.098Z,7.60
2022-11-09T07:59:09.443Z,7.60
2022-11-09T08:01:36.840Z,7.70
2022-11-09T08:04:06.066Z,7.70
2022-11-09T08:06:33.455Z,7.70
2022-11-09T08:09:00.630Z,7.80
2022-11-09T08:11:27.940Z,7.80
2022-11-09T08:13:56.155Z,7.90
2022-11-09T08:16:23.421Z,8.00
2022-11-09T08:18:50.999Z,8.10
2022-11-09T08:21:18.405Z,8.20
2022-11-09T08:23:45.757Z,8.30
2022-11-09T08:26:12.906Z,8.40
2022-11-09T08:28:40.158Z,8.50
2022-11-09T08:31:07.889Z,8.60
2022-11-09T08:33:39.413Z,8.70
2022-11-09T08:36:10.670Z,8.80
2022-11-09T08:38:38.135Z,9.00
2022-11-09T08:41:10.564Z,9.10
2022-11-09T08:43:40.361Z,9.20
2022-11-09T08:46:07.564Z,9.30
2022-11-09T08:48:34.722Z,9.40
2022-11-09T08:51:02.119Z,9.60
2022-11-09T08:53:29.510Z,9.70
2022-11-09T08:55:57.081Z,9.80
2022-11-09T08:58:24.699Z,9.90
2022-11-09T09:00:51.995Z,10.00
2022-11-09T09:03:19.549Z,10.10
2022-11-09T09:05:46.835Z,10.10
2022-11-09T09:08:15.602Z,10.20
2022-11-09T09:10:43.243Z,10.20
2022-11-09T09:13:10.447Z,10.30
2022-11-09T09:15:39.040Z,10.30
2022-11-09T09:18:06.252Z,10.40
2022-11-09T09:20:33.450Z,10.40
2022-11-09T09:23:00.756Z,10.40
2022-11-09T09:25:28.088Z,10.50
2022-11-09T09:27:55.509Z,10.50
2022-11-09T09:30:26.891Z,10.50
2022-11-09T09:33:03.267Z,10.60
2022-11-09T09:35:31.987Z,10.70
2022-11-09T09:38:00.550Z,10.80
2022-11-09T09:40:33.904Z,10.90
2022-11-09T09:43:01.498Z,11.10
2022-11-09T09:45:33.218Z,11.20
2022-11-09T09:48:13.166Z,11.30
2022-11-09T09:50:54.993Z,11.40
2022-11-09T09:53:36.741Z,11.50
2022-11-09T09:56:21.614Z,11.50
2022-11-09T09:59:01.850Z,11.50
2022-11-09T10:01:39.265Z,11.60
2022-11-09T10:04:26.101Z,11.60
2022-11-09T10:07:13.832Z,11.60
2022-11-09T10:10:08.520Z,11.60
2022-11-09T10:13:05.257Z,11.70
2022-11-09T10:15:46.076Z,11.80
2022-11-09T10:18:32.967Z,11.90
2022-11-09T10:21:27.163Z,12.00
2022-11-09T10:24:12.003Z,12.20
2022-11-09T10:26:58.987Z,12.30
2022-11-09T10:29:34.451Z,12.40
2022-11-09T10:32:19.927Z,12.40
2022-11-09T10:35:12.806Z,12.50
2022-11-09T10:37:46.512Z,12.60
2022-11-09T10:40:53.057Z,12.70
2022-11-09T10:43:41.466Z,12.70
2022-11-09T10:46:27.595Z,12.70
2022-11-09T10:49:26.065Z,12.80
2022-11-09T10:52:29.999Z,12.80
2022-11-09T10:55:26.687Z,12.80
2022-11-09T10:58:37.891Z,12.70
2022-11-09T11:01:24.818Z,12.70
2022-11-09T11:04:20.985Z,12.80
2022-11-09T11:07:20.782Z,12.90
2022-11-09T11:10:15.853Z,13.00
2022-11-09T11:13:01.812Z,13.20
2022-11-09T11:15:47.855Z,13.30
2022-11-09T11:18:35.486Z,13.50
2022-11-09T11:21:23.605Z,13.60
2022-11-09T11:24:13.690Z,13.60
2022-11-09T11:27:10.424Z,13.60
2022-11-09T11:30:04.750Z,13.70
2022-11-09T11:32:51.174Z,13.80
2022-11-09T11:36:35.767Z,13.90
2022-11-09T11:39:43.969Z,14.10
2022-11-09T11:42:49.433Z,14.20
2022-11-09T11:45:57.906Z,14.20
2022-11-09T11:48:54.689Z,14.10
2022-11-09T11:51:43.462Z,14.20
2022-11-09T11:54:48.928Z,14.20
2022-11-09T11:57:48.677Z,14.30
2022-11-09T12:00:41.079Z,14.40
2022-11-09T12:03:34.155Z,14.40
2022-11-09T12:06:25.942Z,14.40
2022-11-09T12:09:11.753Z,14.40
2022-11-09T12:12:25.971Z,14.40
2022-11-09T12:15:21.812Z,14.50
2022-11-09T12:18:27.465Z,14.60
2022-11-09T12:21:17.029Z,14.70
2022-11-09T12:24:05.602Z,14.70
2022-11-09T12:30:21.627Z,14.70
2022-11-09T12:33:13.337Z,14.70
2022-11-09T12:36:02.936Z,14.80
2022-11-09T12:38:48.474Z,14.90
2022-11-09T12:41:36.339Z,14.80
2022-11-09T12:44:32.374Z,14.80
2022-11-09T12:47:21.560Z,14.90
2022-11-09T12:50:18.181Z,14.80
2022-11-09T12:53:04.265Z,14.80
2022-11-09T12:55:59.258Z,14.80
2022-11-09T12:58:44.887Z,14.70
2022-11-09T13:01:33.605Z,14.70
2022-11-09T13:04:20.080Z,14.70
2022-11-09T13:07:28.220Z,14.60
2022-11-09T13:10:29.649Z,14.60
2022-11-09T13:13:15.380Z,14.60
2022-11-09T13:16:06.690Z,14.60
2022-11-09T13:18:52.858Z,14.50
2022-11-09T13:21:38.994Z,14.60
2022-11-09T13:24:30.984Z,14.60
2022-11-09T13:27:36.499Z,14.50
2022-11-09T13:30:28.496Z,14.50
2022-11-09T13:33:28.146Z,14.50
2022-11-09T13:36:16.365Z,14.50
2022-11-09T13:39:28.396Z,14.50
2022-11-09T13:42:33.910Z,14.50
2022-11-09T13:45:26.760Z,14.50
2022-11-09T13:48:32.122Z,14.40
2022-11-09T13:51:18.536Z,14.40
2022-11-09T13:54:25.194Z,14.40
2022-11-09T13:57:10.808Z,14.40
2022-11-09T13:59:56.919Z,14.40
2022-11-09T14:02:42.971Z,14.40
2022-11-09T14:05:33.547Z,14.50
2022-11-09T14:08:49.818Z,14.50
2022-11-09T14:12:00.906Z,14.50
2022-11-09T14:15:08.903Z,14.60
2022-11-09T14:18:19.622Z,14.50
2022-11-09T14:21:29.818Z,14.50
2022-11-09T14:24:16.566Z,14.50
2022-11-09T14:27:08.702Z,14.40
2022-11-09T14:29:56.040Z,14.40
2022-11-09T14:32:48.229Z,14.40
2022-11-09T14:35:39.081Z,14.30
2022-11-09T14:38:25.969Z,14.30
2022-11-09T14:41:22.200Z,14.20
2022-11-09T14:44:24.228Z,14.20
2022-11-09T14:47:34.372Z,14.20
2022-11-09T14:50:35.449Z,14.20
2022-11-09T14:53:29.502Z,14.10
2022-11-09T14:56:18.875Z,14.10
2022-11-09T14:59:05.263Z,14.10
2022-11-09T15:02:04.077Z,14.10
2022-11-09T15:05:01.304Z,14.10
2022-11-09T15:07:48.020Z,14.00
2022-11-09T15:10:33.747Z,14.00
2022-11-09T15:13:40.488Z,13.90
2022-11-09T15:16:28.205Z,13.90
2022-11-09T15:19:24.499Z,13.90
2022-11-09T15:22:47.623Z,13.80
2022-11-09T15:25:42.212Z,13.80
2022-11-09T15:28:28.816Z,13.70
2022-11-09T15:31:16.144Z,13.70
2022-11-09T15:34:02.134Z,13.60
2022-11-09T15:36:53.775Z,13.60
2022-11-09T15:39:39.450Z,13.60
2022-11-09T15:42:26.029Z,13.50
2022-11-09T15:45:14.454Z,13.50
2022-11-09T15:48:01.545Z,13.40
2022-11-09T15:50:47.445Z,13.40
2022-11-09T15:53:33.377Z,13.30
2022-11-09T15:56:24.340Z,13.30
2022-11-09T15:59:21.868Z,13.30
2022-11-09T16:02:10.145Z,13.20
2022-11-09T16:04:55.935Z,13.20
2022-11-09T16:07:52.352Z,13.10
2022-11-09T16:10:39.752Z,13.10
2022-11-09T16:13:25.615Z,13.10
2022-11-09T16:16:12.420Z,13.00
2022-11-09T16:18:59.206Z,13.00
2022-11-09T16:21:46.759Z,12.90
2022-11-09T16:24:34.108Z,12.90
2022-11-09T16:27:49.714Z,12.90
2022-11-09T16:30:27.049Z,12.90
2022-11-09T16:33:13.340Z,12.80
2022-11-09T16:36:02.298Z,12.80
2022-11-09T16:38:50.898Z,12.70
2022-11-09T16:41:39.503Z,12.70
2022-11-09T16:44:26.162Z,12.60
2022-11-09T16:47:13.659Z,12.60
2022-11-09T16:49:59.397Z,12.60
2022-11-09T16:52:45.528Z,12.60
2022-11-09T16:55:31.224Z,12.50
2022-11-09T16:58:16.958Z,12.50
2022-11-09T17:01:12.402Z,12.50
2022-11-09T17:03:58.954Z,12.50
2022-11-09T17:06:44.852Z,12.50
2022-11-09T17:09:34.193Z,12.50
2022-11-09T17:12:20.200Z,12.50
2022-11-09T17:15:06.702Z,12.40
2022-11-09T17:17:52.531Z,12.40
2022-11-09T17:20:47.771Z,12.50
2022-11-09T17:23:33.823Z,12.50
2022-11-09T17:26:19.907Z,12.40
2022-11-09T17:29:05.710Z,12.50
2022-11-09T17:31:51.439Z,12.40
2022-11-09T17:34:37.321Z,12.40
2022-11-09T17:37:23.877Z,12.40
2022-11-09T17:40:10.106Z,12.40
2022-11-09T17:42:57.045Z,12.40
2022-11-09T17:45:42.968Z,12.40
2022-11-09T17:48:28.974Z,12.40
2022-11-09T17:51:16.786Z,12.30
2022-11-09T17:54:03.866Z,12.30
2022-11-09T17:56:50.420Z,12.30
2022-11-09T17:59:36.135Z,12.30
2022-11-09T18:02:22.349Z,12.20
2022-11-09T18:05:08.924Z,12.20
2022-11-09T18:07:54.549Z,12.20
2022-11-09T18:10:43.035Z,12.20
2022-11-09T18:13:28.779Z,12.20
2022-11-09T18:16:17.832Z,12.10
2022-11-09T18:19:03.894Z,12.10
2022-11-09T18:21:50.288Z,12.10
2022-11-09T18:24:36.495Z,12.10
2022-11-09T18:27:27.412Z,12.00
2022-11-09T18:30:16.792Z,12.00
2022-11-09T18:33:02.809Z,12.00
2022-11-09T18:35:56.187Z,12.00
2022-11-09T18:38:42.898Z,12.00
2022-11-09T18:41:28.937Z,11.90
2022-11-09T18:44:14.851Z,11.90
2022-11-09T18:47:05.093Z,11.90
2022-11-09T18:49:52.223Z,11.90
2022-11-09T18:52:38.170Z,11.80
2022-11-09T18:55:24.040Z,11.80
2022-11-09T18:58:10.024Z,11.80
2022-11-09T19:01:00.695Z,11.80
2022-11-09T19:03:46.779Z,11.80
2022-11-09T19:06:34.841Z,11.80
2022-11-09T19:09:29.452Z,11.80
2022-11-09T19:12:15.205Z,11.80
2022-11-09T19:15:01.533Z,11.80
2022-11-09T19:17:47.288Z,11.80
2022-11-09T19:20:33.149Z,11.80
2022-11-09T19:23:19.156Z,11.70
2022-11-09T19:26:05.196Z,11.70
2022-11-09T19:28:51.069Z,11.70
2022-11-09T19:31:38.217Z,11.70
2022-11-09T19:34:23.929Z,11.70
2022-11-09T19:37:10.016Z,11.70
2022-11-09T19:39:55.670Z,11.60
2022-11-09T19:42:41.586Z,11.60
2022-11-09T19:45:27.884Z,11.60
2022-11-09T19:48:13.542Z,11.60
2022-11-09T19:50:59.436Z,11.60
2022-11-09T19:53:49.956Z,11.60
2022-11-09T19:56:37.150Z,11.60
2022-11-09T19:59:23.534Z,11.50
2022-11-09T20:02:10.385Z,11.50
2022-11-09T20:04:56.480Z,11.50
2022-11-09T20:07:43.368Z,11.50
2022-11-09T20:10:29.539Z,11.50
2022-11-09T20:13:21.132Z,11.50
2022-11-09T20:16:08.241Z,11.40
2022-11-09T20:18:53.825Z,11.40
2022-11-09T20:21:42.539Z,11.40
2022-11-09T20:24:28.573Z,11.40
2022-11-09T20:27:14.661Z,11.40
2022-11-09T20:30:00.488Z,11.40
2022-11-09T20:32:46.514Z,11.40
2022-11-09T20:35:33.062Z,11.40
2022-11-09T20:38:19.349Z,11.40
2022-11-09T20:41:06.686Z,11.40
2022-11-09T20:43:52.908Z,11.30
2022-11-09T20:46:38.666Z,11.30
2022-11-09T20:49:24.583Z,11.30
2022-11-09T20:52:10.575Z,11.30
2022-11-09T20:54:56.581Z,11.30
2022-11-09T20:57:42.580Z,11.30
2022-11-09T21:00:28.561Z,11.30
2022-11-09T21:03:14.468Z,11.30
2022-11-09T21:06:01.263Z,11.30
2022-11-09T21:08:49.992Z,11.30
2022-11-09T21:11:35.776Z,11.30
2022-11-09T21:14:21.363Z,11.30
2022-11-09T21:17:07.031Z,11.30
2022-11-09T21:19:52.840Z,11.30
2022-11-09T21:22:56.917Z,11.30
2022-11-09T21:26:02.601Z,11.30
2022-11-09T21:29:06.877Z,11.30
2022-11-09T21:31:52.884Z,11.30
2022-11-09T21:34:39.869Z,11.30
2022-11-09T21:37:25.957Z,11.30
2022-11-09T21:40:12.078Z,11.20
2022-11-09T21:42:57.869Z,11.30
2022-11-09T21:45:48.801Z,11.30
2022-11-09T21:48:34.466Z,11.30
2022-11-09T21:51:20.260Z,11.20
2022-11-09T21:54:06.705Z,11.30
2022-11-09T21:56:52.688Z,11.30
2022-11-09T21:59:38.500Z,11.20
2022-11-09T22:02:24.464Z,11.20
2022-11-09T22:05:10.449Z,11.20
2022-11-09T22:07:56.059Z,11.20
2022-11-09T22:10:42.182Z,11.30
2022-11-09T22:13:46.627Z,11.20
2022-11-09T22:16:33.623Z,11.20
2022-11-09T22:19:37.789Z,11.20
2022-11-09T22:22:24.117Z,11.20
2022-11-09T22:25:09.790Z,11.20
2022-11-09T22:27:55.812Z,11.20
2022-11-09T22:30:41.592Z,11.20
2022-11-09T22:33:28.612Z,11.10
2022-11-09T22:36:15.053Z,11.10
2022-11-09T22:39:00.975Z,11.10
2022-11-09T22:41:46.999Z,11.10
2022-11-09T22:44:33.059Z,11.10
2022-11-09T22:47:18.822Z,11.10
2022-11-09T22:50:05.502Z,11.10
2022-11-09T22:52:54.083Z,11.10
2022-11-09T22:55:39.696Z,11.10
2022-11-09T22:58:25.922Z,11.10
2022-11-09T23:01:13.062Z,11.10
2022-11-09T23:03:58.616Z,11.10
2022-11-09T23:06:44.532Z,11.10
2022-11-09T23:09:30.406Z,11.00
2022-11-09T23:12:16.411Z,11.00
2022-11-09T23:15:05.357Z,11.00
2022-11-09T23:18:11.877Z,11.00
2022-11-09T23:21:00.434Z,11.00
2022-11-09T23:23:46.011Z,11.00
2022-11-09T23:26:32.774Z,11.00
2022-11-09T23:29:18.630Z,11.00
2022-11-09T23:32:04.579Z,11.00
2022-11-09T23:34:50.296Z,10.90
2022-11-09T23:37:35.862Z,10.90
2022-11-09T23:40:21.610Z,10.90
2022-11-09T23:43:09.294Z,10.90
2022-11-09T23:45:55.160Z,10.90
2022-11-09T23:48:41.312Z,10.90
2022-11-09T23:51:26.931Z,10.90
2022-11-09T23:54:12.940Z,10.90
2022-11-09T23:56:58.598Z,10.90
2022-11-09T23:59:44.627Z,10.90
